Time;durP1;ratioP1;P1;durP2;ratioP2;P2;SDS_P1;SDS_P2;PMS_P1;PMS_P2;Temp;Humidity;BMP_temperature;BMP_pressure;BME280_temperature;BME280_humidity;BME280_pressure;Samples;Min_cycle;Max_cycle;Signal;HPM_P1;HPM_P2
2021/06/12 00:00:30;;;;;;;0.20;0.00;;;23.40;56.90;;;;;;4975871;28;20057;-84
2021/06/12 00:02:58;;;;;;;0.57;0.20;;;23.40;56.90;;;;;;4987302;28;20471;-84
2021/06/12 00:05:24;;;;;;;0.00;0.00;;;23.40;56.90;;;;;;4973805;28;20030;-84
2021/06/12 00:07:50;;;;;;;0.32;0.00;;;23.50;56.90;;;;;;4975173;28;20031;-84
2021/06/12 00:10:19;;;;;;;0.20;0.00;;;23.40;56.90;;;;;;4993353;28;20023;-86
2021/06/12 00:12:47;;;;;;;0.10;0.00;;;23.40;56.90;;;;;;4977840;28;20500;-83
2021/06/12 00:15:14;;;;;;;0.28;0.05;;;23.50;56.90;;;;;;4977197;28;20030;-84
2021/06/12 00:17:40;;;;;;;0.20;0.10;;;23.50;56.90;;;;;;4973512;28;20038;-83
2021/06/12 00:20:17;;;;;;;0.55;0.13;;;23.50;56.80;;;;;;4971919;28;20400;-83
2021/06/12 00:22:43;;;;;;;0.68;0.15;;;23.50;56.80;;;;;;4985149;28;20027;-83
2021/06/12 00:25:15;;;;;;;0.13;0.00;;;23.50;56.80;;;;;;4972167;28;20399;-84
2021/06/12 00:27:41;;;;;;;0.10;0.00;;;23.50;56.90;;;;;;4972115;28;20046;-84
2021/06/12 00:30:08;;;;;;;0.13;0.03;;;23.50;56.90;;;;;;4955353;28;20039;-83
2021/06/12 00:32:34;;;;;;;0.90;0.17;;;23.50;57.50;;;;;;4987459;28;20030;-84
2021/06/12 00:35:00;;;;;;;0.38;0.15;;;23.50;56.90;;;;;;4973176;28;20053;-84
2021/06/12 00:37:26;;;;;;;0.43;0.08;;;23.50;56.90;;;;;;5009416;28;20031;-86
2021/06/12 00:39:52;;;;;;;0.85;0.08;;;23.50;57.00;;;;;;4977538;28;20476;-86
2021/06/12 00:42:18;;;;;;;0.10;0.00;;;23.40;57.10;;;;;;4976359;28;20035;-85
2021/06/12 00:44:45;;;;;;;0.13;0.00;;;23.30;57.20;;;;;;4976064;28;20041;-85
2021/06/12 00:47:11;;;;;;;0.10;0.00;;;23.30;57.30;;;;;;4956457;28;20067;-86
2021/06/12 00:49:37;;;;;;;0.10;0.00;;;23.20;57.30;;;;;;4972416;28;20477;-85
2021/06/12 00:52:04;;;;;;;0.17;0.08;;;23.20;57.40;;;;;;4971878;28;20499;-86
2021/06/12 00:54:30;;;;;;;0.00;0.00;;;23.10;57.40;;;;;;4971843;28;20030;-84
2021/06/12 00:56:57;;;;;;;0.08;0.00;;;23.10;57.50;;;;;;4971867;28;20031;-84
2021/06/12 00:59:23;;;;;;;0.10;0.00;;;23.10;57.60;;;;;;4971841;28;20523;-84
2021/06/12 01:01:50;;;;;;;0.00;0.00;;;23.00;57.70;;;;;;4968897;28;20038;-81
2021/06/12 01:04:16;;;;;;;0.00;0.00;;;23.00;57.80;;;;;;5008776;28;20035;-84
2021/06/12 01:06:42;;;;;;;1.10;0.10;;;22.90;57.80;;;;;;4976023;28;20122;-84
2021/06/12 01:09:09;;;;;;;0.57;0.10;;;22.80;57.90;;;;;;4977129;28;20031;-84
2021/06/12 01:11:41;;;;;;;0.38;0.20;;;22.80;58.10;;;;;;4975820;28;20027;-84
2021/06/12 01:14:18;;;;;;;0.10;0.00;;;22.80;58.20;;;;;;4971969;28;20019;-84
2021/06/12 01:17:01;;;;;;;0.10;0.00;;;22.70;58.30;;;;;;5016115;28;20487;-84
2021/06/12 01:19:30;;;;;;;0.13;0.10;;;22.60;58.30;;;;;;5003204;28;20045;-82
2021/06/12 01:21:56;;;;;;;0.22;0.13;;;22.50;58.40;;;;;;5008708;28;20050;-84
2021/06/12 01:24:37;;;;;;;0.17;0.00;;;22.50;58.60;;;;;;4972693;28;20036;-84
2021/06/12 01:27:22;;;;;;;;;;;22.40;58.80;;;;;;5000059;28;20030;-84
2021/06/12 01:30:13;;;;;;;7.32;0.10;;;22.40;58.80;;;;;;4977017;28;20256;-83
2021/06/12 01:32:41;;;;;;;2.63;0.25;;;22.30;58.80;;;;;;4952420;28;20023;-84
2021/06/12 01:35:32;;;;;;;0.32;0.10;;;22.30;58.80;;;;;;4952322;28;20054;-84
2021/06/12 01:37:58;;;;;;;;;;;22.20;58.80;;;;;;4966895;28;20066;-83
2021/06/12 01:40:25;;;;;;;0.03;0.00;;;22.30;58.80;;;;;;4988858;28;20376;-84
2021/06/12 01:42:52;;;;;;;0.15;0.00;;;22.30;58.70;;;;;;4987927;28;20034;-85
2021/06/12 01:45:18;;;;;;;0.13;0.00;;;22.20;58.80;;;;;;4973330;28;20039;-86
2021/06/12 01:47:45;;;;;;;0.10;0.10;;;22.20;58.80;;;;;;4974799;28;20042;-86
2021/06/12 01:50:11;;;;;;;0.00;0.00;;;22.20;58.90;;;;;;4975015;28;20396;-83
2021/06/12 01:52:38;;;;;;;0.03;0.00;;;22.20;58.90;;;;;;4991705;28;20031;-86
2021/06/12 01:55:05;;;;;;;0.10;0.00;;;22.20;59.00;;;;;;4974924;28;20042;-86
2021/06/12 01:57:31;;;;;;;0.10;0.00;;;22.10;59.10;;;;;;4974589;28;20039;-87
2021/06/12 01:59:57;;;;;;;0.20;0.00;;;22.10;59.80;;;;;;4974586;28;20031;-83
2021/06/12 02:02:23;;;;;;;2.47;0.93;;;22.10;59.30;;;;;;4971313;28;20530;-82
2021/06/12 02:04:52;;;;;;;0.20;0.00;;;22.00;59.40;;;;;;4982792;28;20027;-83
2021/06/12 02:07:18;;;;;;;0.10;0.00;;;21.90;59.40;;;;;;5004831;28;20035;-84
2021/06/12 02:09:47;;;;;;;0.10;0.10;;;21.90;59.60;;;;;;4972790;28;20363;-83
2021/06/12 02:12:13;;;;;;;0.40;0.10;;;21.90;59.60;;;;;;4985887;28;20053;-84
2021/06/12 02:14:39;;;;;;;0.20;0.20;;;21.90;59.60;;;;;;4989072;28;20035;-84
2021/06/12 02:17:06;;;;;;;0.38;0.10;;;21.80;59.70;;;;;;4986267;28;20038;-80
2021/06/12 02:19:34;;;;;;;0.25;0.10;;;21.80;59.70;;;;;;4972580;28;20042;-83
2021/06/12 02:22:00;;;;;;;0.57;0.10;;;21.80;59.80;;;;;;4985870;28;20026;-86
2021/06/12 02:24:26;;;;;;;0.25;0.10;;;21.70;59.90;;;;;;4972461;28;20484;-83
2021/06/12 02:26:53;;;;;;;0.55;0.10;;;21.70;59.90;;;;;;4985922;28;20035;-83
2021/06/12 02:29:19;;;;;;;2.10;0.00;;;21.80;60.00;;;;;;4986001;28;20035;-81
2021/06/12 02:31:48;;;;;;;1.85;0.08;;;21.80;60.00;;;;;;4988140;28;20061;-80
2021/06/12 02:34:14;;;;;;;0.20;0.00;;;21.70;60.00;;;;;;4986703;28;20099;-83
2021/06/12 02:36:40;;;;;;;0.40;0.20;;;21.70;60.10;;;;;;4969982;28;20400;-84
2021/06/12 02:39:07;;;;;;;0.47;0.00;;;21.70;60.00;;;;;;4973885;28;20035;-84
2021/06/12 02:41:35;;;;;;;0.20;0.10;;;21.70;60.00;;;;;;4975122;28;20054;-83
2021/06/12 02:44:01;;;;;;;0.38;0.10;;;21.70;60.00;;;;;;4974107;28;20039;-83
2021/06/12 02:46:29;;;;;;;0.10;0.00;;;21.70;60.20;;;;;;4973384;28;20061;-83
2021/06/12 02:49:02;;;;;;;0.10;0.00;;;21.70;60.20;;;;;;4973614;28;20027;-83
2021/06/12 02:51:29;;;;;;;0.20;0.03;;;21.70;60.30;;;;;;4989524;28;20046;-82
2021/06/12 02:53:55;;;;;;;0.40;0.00;;;21.60;60.20;;;;;;4974938;28;20023;-83
2021/06/12 02:56:21;;;;;;;0.00;0.00;;;21.60;60.30;;;;;;4973596;28;20393;-83
2021/06/12 02:58:47;;;;;;;0.38;0.10;;;21.60;60.40;;;;;;4973942;28;20034;-84
2021/06/12 03:01:13;;;;;;;7.50;0.20;;;21.60;60.50;;;;;;5005577;28;20523;-83
2021/06/12 03:03:40;;;;;;;1.45;0.10;;;21.60;60.50;;;;;;4973610;28;20031;-83
2021/06/12 03:06:06;;;;;;;0.63;0.10;;;21.50;60.60;;;;;;4989618;28;20411;-81
2021/06/12 03:08:37;;;;;;;0.22;0.10;;;21.50;60.80;;;;;;4973556;28;20031;-83
2021/06/12 03:11:04;;;;;;;1.80;0.00;;;21.50;60.80;;;;;;4957726;28;20053;-84
2021/06/12 03:13:30;;;;;;;0.20;0.00;;;21.50;60.90;;;;;;4974053;28;20042;-83
2021/06/12 03:15:57;;;;;;;0.17;0.00;;;21.50;61.00;;;;;;4972590;28;20423;-84
2021/06/12 03:18:23;;;;;;;0.10;0.00;;;21.40;61.00;;;;;;4973262;28;20030;-84
2021/06/12 03:20:53;;;;;;;0.20;0.10;;;21.40;61.10;;;;;;4973227;28;20046;-83
2021/06/12 03:23:20;;;;;;;0.00;0.00;;;21.40;61.30;;;;;;4957126;28;20034;-85
2021/06/12 03:25:46;;;;;;;0.32;0.10;;;21.30;61.40;;;;;;4973394;28;20030;-83
2021/06/12 03:28:12;;;;;;;1.20;0.30;;;21.30;61.60;;;;;;4973193;28;20365;-83
2021/06/12 03:30:38;;;;;;;0.45;0.17;;;21.20;61.70;;;;;;4972578;28;20419;-86
2021/06/12 03:33:04;;;;;;;0.20;0.10;;;21.10;61.80;;;;;;4973140;28;20098;-84
2021/06/12 03:35:30;;;;;;;4.22;0.17;;;21.10;62.00;;;;;;4956461;28;20035;-84
2021/06/12 03:37:57;;;;;;;1.17;0.17;;;21.10;62.20;;;;;;4973115;28;20035;-85
2021/06/12 03:40:23;;;;;;;0.30;0.15;;;21.00;62.20;;;;;;4973521;28;20030;-83
2021/06/12 03:42:49;;;;;;;0.10;0.00;;;21.00;63.20;;;;;;4953632;28;20039;-85
2021/06/12 03:45:15;;;;;;;2.95;0.32;;;20.90;62.50;;;;;;4965357;28;20042;-85
2021/06/12 03:47:42;;;;;;;0.43;0.20;;;20.90;62.70;;;;;;4956887;28;20496;-85
2021/06/12 03:50:10;;;;;;;0.20;0.00;;;20.90;62.70;;;;;;4972828;28;20387;-85
2021/06/12 03:52:36;;;;;;;0.08;0.00;;;20.80;62.70;;;;;;4973234;28;20034;-85
2021/06/12 03:55:03;;;;;;;0.10;0.00;;;20.80;63.50;;;;;;4972605;28;20392;-85
2021/06/12 03:57:30;;;;;;;0.73;0.20;;;20.80;62.90;;;;;;4972408;28;20415;-85
2021/06/12 03:59:56;;;;;;;0.30;0.08;;;20.80;63.00;;;;;;4971955;28;20027;-85
2021/06/12 04:02:22;;;;;;;0.28;0.10;;;20.80;63.00;;;;;;4986967;28;20042;-85
2021/06/12 04:04:49;;;;;;;1.75;0.25;;;20.70;63.00;;;;;;4975671;28;20023;-86
2021/06/12 04:07:17;;;;;;;0.30;0.10;;;20.70;63.20;;;;;;4977550;28;20038;-85
2021/06/12 04:09:44;;;;;;;0.15;0.00;;;20.70;63.20;;;;;;4976865;28;20043;-85
2021/06/12 04:12:11;;;;;;;0.08;0.08;;;20.70;63.30;;;;;;4976307;28;20034;-85
2021/06/12 04:14:37;;;;;;;0.73;0.13;;;20.70;63.30;;;;;;4956375;28;20042;-85
2021/06/12 04:17:04;;;;;;;1.27;0.10;;;20.60;63.30;;;;;;4974143;28;20054;-85
2021/06/12 04:19:30;;;;;;;0.00;0.00;;;20.60;63.40;;;;;;4989025;28;20034;-85
2021/06/12 04:21:56;;;;;;;0.20;0.00;;;20.60;63.40;;;;;;4988296;28;20034;-85
2021/06/12 04:24:22;;;;;;;0.57;0.10;;;20.60;63.50;;;;;;4973325;28;20031;-85
2021/06/12 04:26:48;;;;;;;1.27;0.10;;;20.60;63.60;;;;;;4972011;28;20052;-84
2021/06/12 04:29:14;;;;;;;0.10;0.00;;;20.60;63.60;;;;;;4955239;28;20043;-85
2021/06/12 04:31:40;;;;;;;0.17;0.10;;;20.60;63.60;;;;;;4986731;28;20046;-85
2021/06/12 04:34:06;;;;;;;0.15;0.03;;;20.60;63.70;;;;;;4976554;28;20036;-84
2021/06/12 04:36:32;;;;;;;0.10;0.00;;;20.60;63.60;;;;;;4976390;28;20042;-85
2021/06/12 04:38:58;;;;;;;1.13;0.15;;;20.60;63.60;;;;;;4977649;28;20037;-85
2021/06/12 04:41:25;;;;;;;0.20;0.08;;;20.70;63.60;;;;;;4973182;28;20035;-85
2021/06/12 04:43:51;;;;;;;0.10;0.00;;;20.70;63.50;;;;;;4974762;28;20038;-85
2021/06/12 04:46:17;;;;;;;0.57;0.25;;;20.80;63.50;;;;;;4977237;28;20046;-85
2021/06/12 04:48:43;;;;;;;0.45;0.03;;;20.80;63.60;;;;;;4971947;28;20031;-85
2021/06/12 04:51:09;;;;;;;1.02;0.20;;;20.80;63.70;;;;;;4954840;28;20039;-85
2021/06/12 04:53:35;;;;;;;0.32;0.00;;;20.70;63.70;;;;;;4971950;28;20030;-83
2021/06/12 04:56:01;;;;;;;1.55;0.47;;;20.80;63.70;;;;;;4972734;28;20035;-84
2021/06/12 04:58:27;;;;;;;1.38;0.10;;;20.80;63.80;;;;;;4953429;28;20047;-85
2021/06/12 05:00:53;;;;;;;0.20;0.08;;;20.70;63.70;;;;;;4969247;28;20043;-84
2021/06/12 05:03:20;;;;;;;0.20;0.00;;;20.80;63.80;;;;;;4988258;28;20027;-84
2021/06/12 05:05:47;;;;;;;0.77;0.00;;;20.80;63.70;;;;;;4987954;28;20034;-85
2021/06/12 05:08:16;;;;;;;0.35;0.10;;;20.80;63.80;;;;;;4956149;28;20503;-84
2021/06/12 05:10:43;;;;;;;0.03;0.00;;;20.70;63.90;;;;;;4969351;28;20035;-84
2021/06/12 05:13:09;;;;;;;0.30;0.15;;;20.70;64.00;;;;;;4974961;28;20031;-85
2021/06/12 05:15:35;;;;;;;0.52;0.25;;;20.70;64.10;;;;;;4980670;28;20102;-85
2021/06/12 05:18:06;;;;;;;0.47;0.00;;;20.60;64.30;;;;;;4988765;28;20368;-82
2021/06/12 05:20:35;;;;;;;0.08;0.00;;;20.60;64.70;;;;;;4977973;28;20483;-85
2021/06/12 05:23:04;;;;;;;0.10;0.05;;;20.50;64.80;;;;;;4976926;28;20049;-84
2021/06/12 05:25:31;;;;;;;0.10;0.10;;;20.50;64.80;;;;;;4981122;28;20372;-85
2021/06/12 05:27:58;;;;;;;0.68;0.30;;;20.50;64.80;;;;;;4979763;28;20494;-85
2021/06/12 05:30:24;;;;;;;0.10;0.00;;;20.60;64.90;;;;;;4979094;28;20468;-85
2021/06/12 05:32:50;;;;;;;0.17;0.00;;;20.60;64.90;;;;;;4956756;28;20484;-84
2021/06/12 05:35:16;;;;;;;0.17;0.08;;;20.60;64.90;;;;;;4975305;28;20026;-85
2021/06/12 05:37:42;;;;;;;0.28;0.10;;;20.70;64.80;;;;;;4975944;28;20093;-85
2021/06/12 05:40:09;;;;;;;1.23;0.10;;;20.80;64.60;;;;;;4974960;28;20039;-84
2021/06/12 05:42:35;;;;;;;0.43;0.08;;;21.00;64.20;;;;;;4957904;28;20054;-85
2021/06/12 05:45:04;;;;;;;0.10;0.08;;;21.20;63.80;;;;;;4975842;28;20031;-80
2021/06/12 05:47:30;;;;;;;0.65;0.30;;;21.30;63.50;;;;;;4990286;28;20035;-84
2021/06/12 05:49:56;;;;;;;0.00;0.00;;;21.40;63.40;;;;;;4978324;28;20357;-85
2021/06/12 05:52:22;;;;;;;0.20;0.03;;;21.60;63.10;;;;;;4995869;28;20019;-85
2021/06/12 05:54:48;;;;;;;6.13;0.10;;;21.70;62.80;;;;;;5011294;28;20034;-84
2021/06/12 05:57:14;;;;;;;0.10;0.00;;;21.80;62.60;;;;;;4995352;28;20038;-84
2021/06/12 05:59:40;;;;;;;0.65;0.15;;;21.80;62.50;;;;;;4979644;28;20029;-85
2021/06/12 06:02:07;;;;;;;0.20;0.13;;;21.80;62.70;;;;;;4974757;28;20507;-83
2021/06/12 06:04:33;;;;;;;0.20;0.00;;;21.80;62.70;;;;;;4991362;28;20031;-83
2021/06/12 06:06:59;;;;;;;1.08;0.00;;;21.90;62.70;;;;;;4975771;28;20038;-84
2021/06/12 06:09:25;;;;;;;0.93;0.25;;;21.90;62.60;;;;;;4974356;28;20026;-84
2021/06/12 06:11:51;;;;;;;2.28;0.65;;;22.00;62.50;;;;;;4974593;28;20388;-84
2021/06/12 06:14:17;;;;;;;0.63;0.03;;;22.10;62.40;;;;;;4974647;28;20034;-85
2021/06/12 06:16:43;;;;;;;1.45;0.20;;;22.30;62.20;;;;;;4989372;28;20479;-84
2021/06/12 06:19:09;;;;;;;0.03;0.00;;;22.40;61.90;;;;;;5011227;28;20038;-84
2021/06/12 06:21:36;;;;;;;0.22;0.10;;;22.50;61.50;;;;;;4994715;28;20062;-84
2021/06/12 06:24:04;;;;;;;1.08;0.15;;;22.60;61.40;;;;;;5010434;28;20026;-85
2021/06/12 06:26:30;;;;;;;2.38;0.43;;;22.70;61.20;;;;;;4976344;28;20042;-85
2021/06/12 06:28:56;;;;;;;0.52;0.10;;;22.70;61.10;;;;;;4976299;28;20030;-84
2021/06/12 06:31:22;;;;;;;0.03;0.00;;;22.80;61.10;;;;;;4979702;28;20058;-85
2021/06/12 06:33:48;;;;;;;0.10;0.00;;;22.80;61.00;;;;;;4974287;28;20041;-85
2021/06/12 06:36:14;;;;;;;0.47;0.10;;;22.90;60.80;;;;;;4974133;28;20038;-85
2021/06/12 06:38:41;;;;;;;0.00;0.00;;;22.90;60.70;;;;;;4974184;28;20034;-85
2021/06/12 06:41:07;;;;;;;0.10;0.00;;;23.00;60.70;;;;;;4975110;28;20043;-83
2021/06/12 06:43:34;;;;;;;0.05;0.00;;;23.10;60.50;;;;;;4975915;28;20023;-85
2021/06/12 06:46:00;;;;;;;0.00;0.00;;;23.30;60.20;;;;;;4982294;28;20049;-85
2021/06/12 06:48:26;;;;;;;0.65;0.10;;;23.40;60.00;;;;;;4984989;28;20488;-85
2021/06/12 06:50:52;;;;;;;0.10;0.00;;;23.50;59.70;;;;;;4978198;28;20045;-85
2021/06/12 06:53:18;;;;;;;0.52;0.20;;;23.60;59.50;;;;;;4975409;28;20035;-84
2021/06/12 06:55:44;;;;;;;0.20;0.08;;;23.70;59.30;;;;;;4977658;28;20473;-83
2021/06/12 06:58:10;;;;;;;1.10;0.17;;;23.80;59.20;;;;;;4979357;28;20034;-85
2021/06/12 07:00:36;;;;;;;0.50;0.15;;;23.90;59.10;;;;;;4978717;28;20054;-85
2021/06/12 07:03:02;;;;;;;0.00;0.00;;;24.00;59.00;;;;;;4974792;28;20034;-86
2021/06/12 07:05:29;;;;;;;0.45;0.10;;;24.10;58.80;;;;;;4974793;28;20031;-83
2021/06/12 07:07:55;;;;;;;0.70;0.17;;;24.20;58.80;;;;;;4974466;28;20392;-85
2021/06/12 07:10:21;;;;;;;0.70;0.00;;;24.30;58.70;;;;;;4975279;28;20031;-85
2021/06/12 07:12:47;;;;;;;2.00;0.30;;;24.40;58.50;;;;;;4973526;28;20026;-84
2021/06/12 07:15:13;;;;;;;0.10;0.00;;;24.60;58.30;;;;;;4974462;28;20034;-85
2021/06/12 07:17:39;;;;;;;0.25;0.20;;;24.60;58.00;;;;;;4988657;28;20026;-85
2021/06/12 07:20:07;;;;;;;0.00;0.00;;;24.70;57.90;;;;;;4975299;28;20031;-85
2021/06/12 07:22:33;;;;;;;0.00;0.00;;;24.70;57.90;;;;;;5010141;28;20045;-84
2021/06/12 07:24:59;;;;;;;0.00;0.00;;;24.80;57.80;;;;;;4993739;28;20027;-85
2021/06/12 07:27:25;;;;;;;0.22;0.00;;;24.90;57.60;;;;;;4974319;28;20039;-85
2021/06/12 07:29:51;;;;;;;0.50;0.20;;;25.00;57.40;;;;;;4999415;28;20492;-84
2021/06/12 07:32:17;;;;;;;0.10;0.00;;;25.20;57.30;;;;;;4972681;28;20039;-86
2021/06/12 07:34:43;;;;;;;0.22;0.00;;;25.30;57.00;;;;;;4956600;28;20035;-85
2021/06/12 07:37:09;;;;;;;0.40;0.10;;;25.50;56.80;;;;;;4989260;28;20488;-85
2021/06/12 07:39:35;;;;;;;0.77;0.10;;;25.60;56.70;;;;;;4974214;28;20045;-86
2021/06/12 07:42:02;;;;;;;1.13;0.10;;;25.70;56.50;;;;;;4972763;28;20392;-85
2021/06/12 07:44:28;;;;;;;0.22;0.10;;;25.70;56.40;;;;;;4972891;28;20033;-84
2021/06/12 07:46:54;;;;;;;0.45;0.10;;;25.80;56.30;;;;;;4985936;28;20058;-85
2021/06/12 07:49:20;;;;;;;0.73;0.15;;;25.80;56.20;;;;;;4993445;28;20031;-85
2021/06/12 07:51:46;;;;;;;0.10;0.00;;;25.90;56.10;;;;;;5009566;28;20022;-86
2021/06/12 07:54:12;;;;;;;0.22;0.10;;;26.10;56.00;;;;;;4993252;28;20043;-85
2021/06/12 07:56:38;;;;;;;0.00;0.00;;;26.20;55.80;;;;;;4992194;28;20472;-85
2021/06/12 07:59:04;;;;;;;0.30;0.10;;;26.40;55.70;;;;;;4973753;28;20046;-86
2021/06/12 08:01:32;;;;;;;0.10;0.00;;;26.50;55.50;;;;;;4993112;28;20045;-86
2021/06/12 08:03:58;;;;;;;0.10;0.00;;;26.60;55.20;;;;;;4973297;28;20023;-83
2021/06/12 08:06:24;;;;;;;0.25;0.00;;;26.70;55.10;;;;;;4972396;28;20026;-86
2021/06/12 08:08:50;;;;;;;0.10;0.00;;;26.80;54.90;;;;;;4956893;28;20037;-85
2021/06/12 08:11:16;;;;;;;0.85;0.00;;;26.90;54.80;;;;;;4973868;28;20042;-86
2021/06/12 08:13:42;;;;;;;0.80;0.17;;;27.00;54.80;;;;;;4974276;28;20484;-86
2021/06/12 08:16:09;;;;;;;0.00;0.00;;;27.00;54.60;;;;;;4980649;28;20034;-85
2021/06/12 08:18:35;;;;;;;4.78;0.40;;;27.10;54.60;;;;;;4980773;28;20034;-86
2021/06/12 08:21:01;;;;;;;0.10;0.00;;;27.30;54.30;;;;;;4975517;28;20042;-86
2021/06/12 08:23:27;;;;;;;0.20;0.00;;;27.50;54.00;;;;;;4957183;28;20035;-85
2021/06/12 08:25:53;;;;;;;0.40;0.10;;;27.60;53.90;;;;;;4974777;28;20030;-85
2021/06/12 08:28:19;;;;;;;0.47;0.08;;;27.60;53.70;;;;;;5009264;28;20511;-86
2021/06/12 08:30:45;;;;;;;0.25;0.10;;;27.60;53.60;;;;;;5008436;28;20038;-86
2021/06/12 08:33:12;;;;;;;0.63;0.00;;;27.70;53.50;;;;;;4987920;28;20031;-85
2021/06/12 08:35:38;;;;;;;0.20;0.10;;;27.70;53.30;;;;;;4973336;28;20026;-86
2021/06/12 08:38:05;;;;;;;0.50;0.10;;;27.80;53.40;;;;;;4973306;28;20049;-86
2021/06/12 08:40:31;;;;;;;0.30;0.00;;;27.70;53.30;;;;;;4972796;28;20030;-86
2021/06/12 08:42:57;;;;;;;1.40;0.10;;;27.80;53.40;;;;;;4971996;28;20381;-85
2021/06/12 08:45:29;;;;;;;0.05;0.00;;;28.00;53.20;;;;;;4971420;28;20046;-86
2021/06/12 08:47:59;;;;;;;0.20;0.00;;;28.20;53.00;;;;;;4987233;28;20030;-86
2021/06/12 08:50:25;;;;;;;1.35;0.52;;;28.40;52.60;;;;;;4972085;28;20035;-86
2021/06/12 08:52:52;;;;;;;1.45;0.10;;;28.60;52.40;;;;;;4972226;28;20470;-85
2021/06/12 08:55:19;;;;;;;0.47;0.10;;;28.60;52.10;;;;;;4988687;28;20042;-86
2021/06/12 08:57:45;;;;;;;0.43;0.20;;;28.60;52.10;;;;;;4988006;28;20023;-86
2021/06/12 09:00:11;;;;;;;0.10;0.00;;;28.70;52.00;;;;;;4987631;28;20033;-87
2021/06/12 09:03:02;;;;;;;0.28;0.10;;;28.80;51.80;;;;;;4987699;28;20046;-87
2021/06/12 09:05:40;;;;;;;0.08;0.00;;;29.00;51.60;;;;;;4959798;28;20034;-85
2021/06/12 09:08:07;;;;;;;0.00;0.00;;;29.10;51.30;;;;;;4971865;28;20023;-86
2021/06/12 09:10:33;;;;;;;0.70;0.30;;;29.00;51.20;;;;;;4972158;28;20054;-85
2021/06/12 09:13:01;;;;;;;0.45;0.10;;;28.90;51.30;;;;;;4971678;28;20042;-87
2021/06/12 09:15:27;;;;;;;1.05;0.10;;;28.90;51.40;;;;;;4987391;28;20054;-85
2021/06/12 09:17:53;;;;;;;0.20;0.00;;;28.90;52.10;;;;;;4987752;28;20023;-87
2021/06/12 09:20:40;;;;;;;0.00;0.00;;;29.10;51.50;;;;;;4955437;28;20039;-86
2021/06/12 09:23:15;;;;;;;0.20;0.00;;;29.20;51.10;;;;;;4972976;28;20088;-86
2021/06/12 09:25:46;;;;;;;0.65;0.50;;;29.30;51.00;;;;;;4972313;28;20029;-87
2021/06/12 09:28:12;;;;;;;;;;;29.50;51.00;;;;;;4972078;28;20034;-86
2021/06/12 09:30:38;;;;;;;0.40;0.03;;;29.60;50.80;;;;;;4977175;28;19920;-87
2021/06/12 09:33:04;;;;;;;0.00;0.00;;;29.70;50.60;;;;;;4985282;28;20031;-86
2021/06/12 09:35:35;;;;;;;0.22;0.15;;;29.80;50.50;;;;;;4973763;28;20031;-87
2021/06/12 09:38:02;;;;;;;0.08;0.00;;;30.00;50.30;;;;;;4972984;28;20038;-87
2021/06/12 09:40:31;;;;;;;0.65;0.10;;;30.10;50.20;;;;;;4977748;28;20496;-86
2021/06/12 09:42:59;;;;;;;0.77;0.17;;;30.20;50.10;;;;;;4956501;28;20054;-87
2021/06/12 09:45:33;;;;;;;0.47;0.20;;;30.30;50.10;;;;;;4982418;28;20046;-86
2021/06/12 09:48:17;;;;;;;0.10;0.00;;;30.50;49.80;;;;;;4971683;28;20030;-88
2021/06/12 09:50:45;;;;;;;0.10;0.08;;;30.50;49.70;;;;;;4971631;28;20392;-87
2021/06/12 09:53:16;;;;;;;0.20;0.00;;;30.70;49.70;;;;;;4971504;28;20404;-87
2021/06/12 09:55:43;;;;;;;1.02;0.10;;;30.90;49.60;;;;;;4967658;28;20047;-87
2021/06/12 09:58:09;;;;;;;0.20;0.10;;;30.90;49.30;;;;;;4989293;28;20038;-85
2021/06/12 10:00:41;;;;;;;0.75;0.20;;;30.90;49.30;;;;;;4990249;28;20041;-87
2021/06/12 10:03:19;;;;;;;0.25;0.10;;;30.80;49.20;;;;;;4990865;28;20043;-85
2021/06/12 10:05:46;;;;;;;1.45;0.00;;;30.70;49.40;;;;;;4974706;28;20034;-86
2021/06/12 10:08:13;;;;;;;0.10;0.00;;;30.80;49.30;;;;;;4974750;28;20034;-86
2021/06/12 10:10:42;;;;;;;0.77;0.05;;;30.90;49.70;;;;;;4991455;28;20031;-87
2021/06/12 10:13:08;;;;;;;0.30;0.05;;;30.90;49.00;;;;;;4974602;28;20501;-86
2021/06/12 10:15:34;;;;;;;0.28;0.08;;;30.90;48.90;;;;;;4973708;28;20039;-86
2021/06/12 10:18:00;;;;;;;0.20;0.17;;;30.80;48.80;;;;;;4974551;28;20015;-85
2021/06/12 10:20:26;;;;;;;0.43;0.08;;;30.80;48.70;;;;;;4974520;28;20031;-86
2021/06/12 10:22:53;;;;;;;0.00;0.00;;;30.70;48.60;;;;;;4976143;28;20039;-84
2021/06/12 10:25:21;;;;;;;0.20;0.05;;;30.80;48.60;;;;;;4974941;28;20046;-87
2021/06/12 10:27:47;;;;;;;0.22;0.00;;;30.80;48.60;;;;;;4974495;28;20115;-85
2021/06/12 10:30:15;;;;;;;0.32;0.03;;;30.80;48.40;;;;;;4989602;28;20034;-85
2021/06/12 10:32:50;;;;;;;0.30;0.08;;;30.70;48.30;;;;;;4974338;28;20034;-86
2021/06/12 10:35:18;;;;;;;0.10;0.00;;;30.70;48.20;;;;;;4959469;28;20037;-86
2021/06/12 10:38:00;;;;;;;0.20;0.00;;;30.70;48.20;;;;;;4974722;28;20046;-85
2021/06/12 10:40:49;;;;;;;0.05;0.00;;;30.60;48.20;;;;;;4975901;28;20030;-86
2021/06/12 10:43:19;;;;;;;0.25;0.08;;;30.70;48.10;;;;;;4974124;28;20035;-86
2021/06/12 10:46:04;;;;;;;0.10;0.00;;;30.80;48.10;;;;;;4980446;28;20411;-86
2021/06/12 10:48:36;;;;;;;0.45;0.00;;;30.80;47.90;;;;;;4983508;28;20022;-84
2021/06/12 10:51:14;;;;;;;0.20;0.10;;;30.90;47.80;;;;;;4979388;28;20026;-86
2021/06/12 10:53:42;;;;;;;0.00;0.00;;;30.90;47.70;;;;;;4977281;28;20022;-87
2021/06/12 10:56:12;;;;;;;1.33;0.38;;;30.80;47.50;;;;;;4974287;28;20206;-86
2021/06/12 10:58:42;;;;;;;0.73;0.00;;;30.80;47.60;;;;;;5010751;28;20464;-86
2021/06/12 11:01:08;;;;;;;0.40;0.10;;;30.80;47.50;;;;;;4978745;28;20511;-86
2021/06/12 11:04:18;;;;;;;0.10;0.00;;;30.80;47.30;;;;;;4974736;28;20542;-87
2021/06/12 11:09:19;;;;;;;0.10;0.00;;;31.10;47.10;;;;;;4975895;28;20030;-86
2021/06/12 11:11:49;;;;;;;0.60;0.17;;;31.20;47.00;;;;;;4974882;28;20388;-86
2021/06/12 11:14:21;;;;;;;0.30;0.00;;;31.20;46.60;;;;;;4959312;28;20019;-85
2021/06/12 11:20:04;;;;;;;2.08;0.03;;;31.30;46.60;;;;;;4977778;28;20061;-85
2021/06/12 11:22:39;;;;;;;0.10;0.00;;;31.40;46.30;;;;;;4972839;28;20511;-86
2021/06/12 11:25:07;;;;;;;0.00;0.00;;;31.50;46.10;;;;;;4974421;28;20042;-85
2021/06/12 11:27:40;;;;;;;0.10;0.00;;;31.50;45.90;;;;;;4973994;28;20399;-85
2021/06/12 11:32:58;;;;;;;0.17;0.13;;;31.50;45.90;;;;;;4989909;28;20030;-86
2021/06/12 11:35:47;;;;;;;0.65;0.17;;;31.40;45.50;;;;;;4961621;28;20473;-86
2021/06/12 11:38:37;;;;;;;0.10;0.00;;;31.40;45.40;;;;;;4957723;28;20026;-85
2021/06/12 11:41:11;;;;;;;0.30;0.00;;;31.40;45.30;;;;;;5014675;28;20114;-86
2021/06/12 11:43:41;;;;;;;0.17;0.00;;;31.40;45.20;;;;;;4974134;28;20047;-86
2021/06/12 11:46:12;;;;;;;0.30;0.10;;;31.30;45.00;;;;;;4977539;28;20054;-85
2021/06/12 11:48:42;;;;;;;;;;;31.30;44.90;;;;;;4973309;28;20041;-86
2021/06/12 11:51:13;;;;;;;0.97;0.23;;;31.30;45.00;;;;;;5005313;28;20283;-86
2021/06/12 11:53:41;;;;;;;0.00;0.00;;;31.40;44.90;;;;;;4955653;28;20502;-86
2021/06/12 11:56:08;;;;;;;0.10;0.00;;;31.40;44.80;;;;;;4972553;28;20039;-85
2021/06/12 11:58:34;;;;;;;0.20;0.03;;;31.50;44.60;;;;;;4973237;28;20492;-85
2021/06/12 12:01:00;;;;;;;0.30;0.10;;;31.50;44.60;;;;;;4972035;28;20050;-86
2021/06/12 12:03:26;;;;;;;1.20;0.50;;;31.50;44.60;;;;;;4973607;28;20229;-86
2021/06/12 12:05:58;;;;;;;0.20;0.10;;;31.60;44.40;;;;;;4972505;28;20029;-84
2021/06/12 12:08:24;;;;;;;0.25;0.10;;;31.60;44.20;;;;;;4972783;28;20023;-86
2021/06/12 12:10:54;;;;;;;0.32;0.10;;;31.70;44.20;;;;;;4973641;28;20499;-86
2021/06/12 12:13:39;;;;;;;0.10;0.00;;;31.80;44.20;;;;;;4972667;28;20039;-86
2021/06/12 12:16:17;;;;;;;0.38;0.03;;;32.10;44.00;;;;;;4987872;28;20034;-86
2021/06/12 12:18:48;;;;;;;0.40;0.10;;;32.10;43.80;;;;;;4987038;28;20038;-86
2021/06/12 12:21:13;;;;;;;;;;;32.10;43.70;;;;;;4972279;28;20057;-85
2021/06/12 12:23:39;;;;;;;0.20;0.00;;;32.20;43.90;;;;;;5004779;28;20371;-86
2021/06/12 12:26:15;;;;;;;0.22;0.00;;;32.30;43.80;;;;;;4972085;28;20034;-86
2021/06/12 12:28:51;;;;;;;0.20;0.10;;;32.50;43.60;;;;;;4957345;28;20042;-84
2021/06/12 12:31:17;;;;;;;0.00;0.00;;;32.50;43.50;;;;;;4982516;28;20034;-86
2021/06/12 12:33:45;;;;;;;0.20;0.00;;;32.50;43.40;;;;;;4979850;28;20034;-85
2021/06/12 12:36:11;;;;;;;0.57;0.10;;;32.50;43.50;;;;;;4976318;28;20029;-85
2021/06/12 12:38:37;;;;;;;0.47;0.08;;;32.40;43.30;;;;;;4975175;28;20026;-86
2021/06/12 12:41:05;;;;;;;0.00;0.00;;;32.30;43.30;;;;;;4974114;28;20033;-85
2021/06/12 12:43:32;;;;;;;0.10;0.00;;;32.20;43.40;;;;;;5009057;28;20042;-86
2021/06/12 12:45:58;;;;;;;2.58;0.10;;;32.10;43.50;;;;;;4991763;28;20369;-83
2021/06/12 12:48:25;;;;;;;0.00;0.00;;;32.10;43.40;;;;;;4971775;28;20027;-86
2021/06/12 12:50:51;;;;;;;0.00;0.00;;;32.20;43.40;;;;;;4971905;28;20042;-85
2021/06/12 12:53:20;;;;;;;0.05;0.00;;;32.30;43.40;;;;;;4971991;28;20483;-85
2021/06/12 12:56:00;;;;;;;0.10;0.00;;;32.50;43.30;;;;;;4971943;28;20045;-86
2021/06/12 12:58:27;;;;;;;0.20;0.10;;;32.50;43.10;;;;;;4986978;28;20035;-86
2021/06/12 13:01:09;;;;;;;0.00;0.00;;;32.50;43.10;;;;;;4979396;28;20046;-84